Terminal Aerodrome Forecast
Issued by NWS Des Moines, IA

Home | Current Version | Previous Version | Text Only | Print | Product List | Glossary On
Versions: 1 2 3 4 5 6 7 8 9 10 11 12 13 14 15 16 17 18 19 20 21 22 23 24 25 26 27 28 29 30 31 32 33 34 35 36
287
FTUS43 KDMX 211312 AAA
TAFDSM
TAF AMD
KDSM 211312Z 2113/2212 07005KT 5SM -DZ BR OVC020
     FM211400 07006KT 3SM BR VCSH OVC017
     FM211800 07006KT 2SM BR VCSH OVC008
     FM220000 06008KT 3SM -RA BR OVC005=

USA.gov is the U.S. government's official web portal to all federal, state and local government web resources and services.